sensor_id;sensor_type;location;lat;lon;timestamp;temperature;humidity
10314;DHT22;5202;49.138;10.090;2023-07-13T00:01:14;20.00;85.40
10314;DHT22;5202;49.138;10.090;2023-07-13T00:03:43;19.90;85.30
10314;DHT22;5202;49.138;10.090;2023-07-13T00:06:12;19.90;85.30
10314;DHT22;5202;49.138;10.090;2023-07-13T00:08:40;19.90;85.20
10314;DHT22;5202;49.138;10.090;2023-07-13T00:11:09;19.90;85.10
10314;DHT22;5202;49.138;10.090;2023-07-13T00:13:38;19.90;85.10
10314;DHT22;5202;49.138;10.090;2023-07-13T00:16:09;19.90;85.00
10314;DHT22;5202;49.138;10.090;2023-07-13T00:18:41;19.90;85.00
10314;DHT22;5202;49.138;10.090;2023-07-13T00:21:09;19.80;85.00
10314;DHT22;5202;49.138;10.090;2023-07-13T00:23:40;19.80;85.10
10314;DHT22;5202;49.138;10.090;2023-07-13T00:26:11;19.80;85.80
10314;DHT22;5202;49.138;10.090;2023-07-13T00:28:41;19.70;84.80
10314;DHT22;5202;49.138;10.090;2023-07-13T00:31:11;19.70;85.10
10314;DHT22;5202;49.138;10.090;2023-07-13T00:33:41;19.60;85.30
10314;DHT22;5202;49.138;10.090;2023-07-13T00:36:10;19.60;85.70
10314;DHT22;5202;49.138;10.090;2023-07-13T00:38:39;19.60;86.00
10314;DHT22;5202;49.138;10.090;2023-07-13T00:41:08;19.40;85.90
10314;DHT22;5202;49.138;10.090;2023-07-13T00:43:36;19.40;86.20
10314;DHT22;5202;49.138;10.090;2023-07-13T00:46:20;19.30;86.10
10314;DHT22;5202;49.138;10.090;2023-07-13T00:48:55;19.30;86.30
10314;DHT22;5202;49.138;10.090;2023-07-13T00:51:30;19.30;86.30
10314;DHT22;5202;49.138;10.090;2023-07-13T00:54:04;19.20;86.50
10314;DHT22;5202;49.138;10.090;2023-07-13T00:56:35;19.20;86.70
10314;DHT22;5202;49.138;10.090;2023-07-13T00:59:07;19.20;86.90
10314;DHT22;5202;49.138;10.090;2023-07-13T01:01:37;19.10;86.80
10314;DHT22;5202;49.138;10.090;2023-07-13T01:04:06;19.10;87.00
10314;DHT22;5202;49.138;10.090;2023-07-13T01:06:35;19.00;87.20
10314;DHT22;5202;49.138;10.090;2023-07-13T01:09:05;19.00;87.40
10314;DHT22;5202;49.138;10.090;2023-07-13T01:11:34;19.00;87.50
10314;DHT22;5202;49.138;10.090;2023-07-13T01:14:03;18.90;87.50
10314;DHT22;5202;49.138;10.090;2023-07-13T01:16:33;18.90;87.80
10314;DHT22;5202;49.138;10.090;2023-07-13T01:19:13;18.80;87.80
10314;DHT22;5202;49.138;10.090;2023-07-13T01:21:51;18.80;88.20
10314;DHT22;5202;49.138;10.090;2023-07-13T01:24:20;18.80;88.40
10314;DHT22;5202;49.138;10.090;2023-07-13T01:26:49;18.70;88.20
10314;DHT22;5202;49.138;10.090;2023-07-13T01:29:17;18.70;88.20
10314;DHT22;5202;49.138;10.090;2023-07-13T01:31:45;18.70;88.10
10314;DHT22;5202;49.138;10.090;2023-07-13T01:34:14;18.70;88.30
10314;DHT22;5202;49.138;10.090;2023-07-13T01:36:43;18.70;88.00
10314;DHT22;5202;49.138;10.090;2023-07-13T01:39:13;18.60;88.30
10314;DHT22;5202;49.138;10.090;2023-07-13T01:41:41;18.50;88.60
10314;DHT22;5202;49.138;10.090;2023-07-13T01:44:10;18.40;88.70
10314;DHT22;5202;49.138;10.090;2023-07-13T01:46:38;18.40;88.80
10314;DHT22;5202;49.138;10.090;2023-07-13T01:49:06;18.30;88.80
10314;DHT22;5202;49.138;10.090;2023-07-13T01:51:35;18.30;89.00
10314;DHT22;5202;49.138;10.090;2023-07-13T01:54:03;18.30;89.10
10314;DHT22;5202;49.138;10.090;2023-07-13T01:56:33;18.40;88.60
10314;DHT22;5202;49.138;10.090;2023-07-13T01:59:01;18.30;88.80
10314;DHT22;5202;49.138;10.090;2023-07-13T02:01:30;18.30;89.00
10314;DHT22;5202;49.138;10.090;2023-07-13T02:04:08;18.20;89.30
10314;DHT22;5202;49.138;10.090;2023-07-13T02:06:40;18.40;89.20
10314;DHT22;5202;49.138;10.090;2023-07-13T02:09:09;18.40;88.80
10314;DHT22;5202;49.138;10.090;2023-07-13T02:11:39;18.40;88.80
10314;DHT22;5202;49.138;10.090;2023-07-13T02:14:07;18.50;89.00
10314;DHT22;5202;49.138;10.090;2023-07-13T02:16:36;18.50;88.80
10314;DHT22;5202;49.138;10.090;2023-07-13T02:19:04;18.50;89.20
10314;DHT22;5202;49.138;10.090;2023-07-13T02:21:33;18.40;90.10
10314;DHT22;5202;49.138;10.090;2023-07-13T02:24:02;18.30;90.20
10314;DHT22;5202;49.138;10.090;2023-07-13T02:26:31;18.20;90.40
10314;DHT22;5202;49.138;10.090;2023-07-13T02:29:00;18.20;90.70
10314;DHT22;5202;49.138;10.090;2023-07-13T02:31:29;18.00;91.00
10314;DHT22;5202;49.138;10.090;2023-07-13T02:33:57;18.00;91.30
10314;DHT22;5202;49.138;10.090;2023-07-13T02:36:25;17.80;91.50
10314;DHT22;5202;49.138;10.090;2023-07-13T02:38:54;17.70;91.80
10314;DHT22;5202;49.138;10.090;2023-07-13T02:41:22;17.70;92.20
10314;DHT22;5202;49.138;10.090;2023-07-13T02:43:50;17.60;92.30
10314;DHT22;5202;49.138;10.090;2023-07-13T02:46:20;17.50;92.50
10314;DHT22;5202;49.138;10.090;2023-07-13T02:48:51;17.40;92.60
10314;DHT22;5202;49.138;10.090;2023-07-13T02:51:20;17.30;93.00
10314;DHT22;5202;49.138;10.090;2023-07-13T02:53:49;17.30;93.10
10314;DHT22;5202;49.138;10.090;2023-07-13T02:56:18;17.20;93.20
10314;DHT22;5202;49.138;10.090;2023-07-13T02:58:49;17.20;93.30
10314;DHT22;5202;49.138;10.090;2023-07-13T03:01:20;17.20;93.40
10314;DHT22;5202;49.138;10.090;2023-07-13T03:03:50;17.10;93.50
10314;DHT22;5202;49.138;10.090;2023-07-13T03:06:19;17.00;93.90
10314;DHT22;5202;49.138;10.090;2023-07-13T03:08:51;16.90;94.00
10314;DHT22;5202;49.138;10.090;2023-07-13T03:11:21;16.80;94.20
10314;DHT22;5202;49.138;10.090;2023-07-13T03:13:59;16.80;94.50
10314;DHT22;5202;49.138;10.090;2023-07-13T03:16:33;16.70;94.40
10314;DHT22;5202;49.138;10.090;2023-07-13T03:19:02;16.60;94.40
10314;DHT22;5202;49.138;10.090;2023-07-13T03:21:31;16.50;94.50
10314;DHT22;5202;49.138;10.090;2023-07-13T03:23:59;16.50;94.80
10314;DHT22;5202;49.138;10.090;2023-07-13T03:26:28;16.40;94.90
10314;DHT22;5202;49.138;10.090;2023-07-13T03:28:56;16.30;95.00
10314;DHT22;5202;49.138;10.090;2023-07-13T03:31:27;16.30;95.20
10314;DHT22;5202;49.138;10.090;2023-07-13T03:33:58;16.20;95.30
10314;DHT22;5202;49.138;10.090;2023-07-13T03:36:30;16.20;95.40
10314;DHT22;5202;49.138;10.090;2023-07-13T03:39:04;16.20;95.70
10314;DHT22;5202;49.138;10.090;2023-07-13T03:41:48;16.10;95.70
10314;DHT22;5202;49.138;10.090;2023-07-13T03:44:18;16.10;95.90
10314;DHT22;5202;49.138;10.090;2023-07-13T03:46:52;16.10;96.10
10314;DHT22;5202;49.138;10.090;2023-07-13T03:49:22;16.10;96.20
10314;DHT22;5202;49.138;10.090;2023-07-13T03:51:50;16.10;96.10
10314;DHT22;5202;49.138;10.090;2023-07-13T03:54:20;16.00;96.20
10314;DHT22;5202;49.138;10.090;2023-07-13T03:56:48;16.00;96.50
10314;DHT22;5202;49.138;10.090;2023-07-13T03:59:18;16.00;96.50
10314;DHT22;5202;49.138;10.090;2023-07-13T04:01:47;16.00;96.70
10314;DHT22;5202;49.138;10.090;2023-07-13T04:04:15;16.00;96.80
10314;DHT22;5202;49.138;10.090;2023-07-13T04:06:46;16.00;96.90
10314;DHT22;5202;49.138;10.090;2023-07-13T04:09:14;16.00;96.90
10314;DHT22;5202;49.138;10.090;2023-07-13T04:11:43;16.00;97.10
10314;DHT22;5202;49.138;10.090;2023-07-13T04:14:11;16.00;97.10
10314;DHT22;5202;49.138;10.090;2023-07-13T04:16:40;16.00;97.10
10314;DHT22;5202;49.138;10.090;2023-07-13T04:19:10;16.10;97.50
10314;DHT22;5202;49.138;10.090;2023-07-13T04:21:38;16.10;97.40
10314;DHT22;5202;49.138;10.090;2023-07-13T04:24:08;16.10;97.70
10314;DHT22;5202;49.138;10.090;2023-07-13T04:26:36;16.20;97.70
10314;DHT22;5202;49.138;10.090;2023-07-13T04:29:05;16.30;98.30
10314;DHT22;5202;49.138;10.090;2023-07-13T04:31:34;16.40;98.30
10314;DHT22;5202;49.138;10.090;2023-07-13T04:34:02;16.40;98.50
10314;DHT22;5202;49.138;10.090;2023-07-13T04:36:31;16.50;97.60
10314;DHT22;5202;49.138;10.090;2023-07-13T04:38:59;16.60;96.70
10314;DHT22;5202;49.138;10.090;2023-07-13T04:41:29;16.70;95.70
10314;DHT22;5202;49.138;10.090;2023-07-13T04:43:57;16.80;95.10
10314;DHT22;5202;49.138;10.090;2023-07-13T04:46:26;16.90;94.00
10314;DHT22;5202;49.138;10.090;2023-07-13T04:48:55;16.80;94.30
10314;DHT22;5202;49.138;10.090;2023-07-13T04:51:23;16.80;94.40
10314;DHT22;5202;49.138;10.090;2023-07-13T04:53:53;16.70;94.20
10314;DHT22;5202;49.138;10.090;2023-07-13T04:56:28;16.80;94.20
10314;DHT22;5202;49.138;10.090;2023-07-13T04:58:57;16.90;93.90
10314;DHT22;5202;49.138;10.090;2023-07-13T05:01:25;17.00;93.90
10314;DHT22;5202;49.138;10.090;2023-07-13T05:03:54;17.00;93.60
10314;DHT22;5202;49.138;10.090;2023-07-13T05:06:25;17.00;93.40
10314;DHT22;5202;49.138;10.090;2023-07-13T05:08:53;17.00;93.50
10314;DHT22;5202;49.138;10.090;2023-07-13T05:11:22;17.10;93.40
10314;DHT22;5202;49.138;10.090;2023-07-13T05:13:52;17.10;93.30
10314;DHT22;5202;49.138;10.090;2023-07-13T05:16:20;17.20;93.30
10314;DHT22;5202;49.138;10.090;2023-07-13T05:18:48;17.10;93.10
10314;DHT22;5202;49.138;10.090;2023-07-13T05:21:17;17.10;93.20
10314;DHT22;5202;49.138;10.090;2023-07-13T05:23:45;17.20;92.90
10314;DHT22;5202;49.138;10.090;2023-07-13T05:26:13;17.20;92.60
10314;DHT22;5202;49.138;10.090;2023-07-13T05:28:42;17.20;92.20
10314;DHT22;5202;49.138;10.090;2023-07-13T05:31:12;17.30;92.20
10314;DHT22;5202;49.138;10.090;2023-07-13T05:33:41;17.20;91.90
10314;DHT22;5202;49.138;10.090;2023-07-13T05:36:10;17.20;92.00
10314;DHT22;5202;49.138;10.090;2023-07-13T05:38:38;17.30;92.00
10314;DHT22;5202;49.138;10.090;2023-07-13T05:41:07;17.30;91.80
10314;DHT22;5202;49.138;10.090;2023-07-13T05:43:36;17.20;91.50
10314;DHT22;5202;49.138;10.090;2023-07-13T05:46:04;17.20;91.90
10314;DHT22;5202;49.138;10.090;2023-07-13T05:48:34;17.30;91.90
10314;DHT22;5202;49.138;10.090;2023-07-13T05:51:03;17.40;91.70
10314;DHT22;5202;49.138;10.090;2023-07-13T05:53:31;17.40;91.60
10314;DHT22;5202;49.138;10.090;2023-07-13T05:55:59;17.50;91.70
10314;DHT22;5202;49.138;10.090;2023-07-13T05:58:29;17.60;91.60
10314;DHT22;5202;49.138;10.090;2023-07-13T06:01:02;17.70;91.40
10314;DHT22;5202;49.138;10.090;2023-07-13T06:03:34;17.90;91.40
10314;DHT22;5202;49.138;10.090;2023-07-13T06:06:12;18.00;91.30
10314;DHT22;5202;49.138;10.090;2023-07-13T06:08:41;18.00;91.40
10314;DHT22;5202;49.138;10.090;2023-07-13T06:11:13;18.00;90.90
10314;DHT22;5202;49.138;10.090;2023-07-13T06:13:44;17.90;91.20
10314;DHT22;5202;49.138;10.090;2023-07-13T06:16:13;17.90;91.30
10314;DHT22;5202;49.138;10.090;2023-07-13T06:18:44;18.10;90.90
10314;DHT22;5202;49.138;10.090;2023-07-13T06:21:14;18.20;90.20
10314;DHT22;5202;49.138;10.090;2023-07-13T06:23:45;18.30;90.10
10314;DHT22;5202;49.138;10.090;2023-07-13T06:26:15;18.30;89.60
10314;DHT22;5202;49.138;10.090;2023-07-13T06:28:45;18.30;89.30
10314;DHT22;5202;49.138;10.090;2023-07-13T06:31:14;18.40;89.20
10314;DHT22;5202;49.138;10.090;2023-07-13T06:33:44;18.30;88.50
10314;DHT22;5202;49.138;10.090;2023-07-13T06:36:13;18.30;89.30
10314;DHT22;5202;49.138;10.090;2023-07-13T06:38:41;18.40;88.20
10314;DHT22;5202;49.138;10.090;2023-07-13T06:41:09;18.50;88.90
10314;DHT22;5202;49.138;10.090;2023-07-13T06:43:38;18.60;89.30
10314;DHT22;5202;49.138;10.090;2023-07-13T06:46:07;18.70;90.00
10314;DHT22;5202;49.138;10.090;2023-07-13T06:48:35;18.70;88.10
10314;DHT22;5202;49.138;10.090;2023-07-13T06:51:05;18.80;87.90
10314;DHT22;5202;49.138;10.090;2023-07-13T06:53:34;18.70;87.60
10314;DHT22;5202;49.138;10.090;2023-07-13T06:56:03;18.80;87.70
10314;DHT22;5202;49.138;10.090;2023-07-13T06:58:33;19.00;87.80
10314;DHT22;5202;49.138;10.090;2023-07-13T07:01:02;19.00;86.50
10314;DHT22;5202;49.138;10.090;2023-07-13T07:03:34;19.00;87.20
10314;DHT22;5202;49.138;10.090;2023-07-13T07:06:11;18.90;86.30
10314;DHT22;5202;49.138;10.090;2023-07-13T07:08:42;18.80;86.80
10314;DHT22;5202;49.138;10.090;2023-07-13T07:11:13;19.00;86.70
10314;DHT22;5202;49.138;10.090;2023-07-13T07:13:43;19.10;86.80
10314;DHT22;5202;49.138;10.090;2023-07-13T07:16:11;19.40;86.20
10314;DHT22;5202;49.138;10.090;2023-07-13T07:18:40;19.40;85.00
10314;DHT22;5202;49.138;10.090;2023-07-13T07:21:10;19.20;85.30
10314;DHT22;5202;49.138;10.090;2023-07-13T07:23:40;19.30;86.80
10314;DHT22;5202;49.138;10.090;2023-07-13T07:26:08;19.40;84.60
10314;DHT22;5202;49.138;10.090;2023-07-13T07:28:38;19.50;83.70
10314;DHT22;5202;49.138;10.090;2023-07-13T07:31:12;19.70;84.00
10314;DHT22;5202;49.138;10.090;2023-07-13T07:33:43;19.90;83.70
10314;DHT22;5202;49.138;10.090;2023-07-13T07:36:13;20.00;82.70
10314;DHT22;5202;49.138;10.090;2023-07-13T07:38:44;20.20;81.70
10314;DHT22;5202;49.138;10.090;2023-07-13T07:41:13;20.30;80.40
10314;DHT22;5202;49.138;10.090;2023-07-13T07:43:44;20.20;79.30
10314;DHT22;5202;49.138;10.090;2023-07-13T07:46:13;20.10;80.50
10314;DHT22;5202;49.138;10.090;2023-07-13T07:48:42;20.20;80.50
10314;DHT22;5202;49.138;10.090;2023-07-13T07:51:10;20.10;81.00
10314;DHT22;5202;49.138;10.090;2023-07-13T07:53:42;20.20;78.80
10314;DHT22;5202;49.138;10.090;2023-07-13T07:56:10;20.40;78.30
10314;DHT22;5202;49.138;10.090;2023-07-13T07:58:42;20.40;77.20
10314;DHT22;5202;49.138;10.090;2023-07-13T08:01:13;20.50;77.70
10314;DHT22;5202;49.138;10.090;2023-07-13T08:03:49;20.60;77.40
10314;DHT22;5202;49.138;10.090;2023-07-13T08:06:22;20.80;75.90
10314;DHT22;5202;49.138;10.090;2023-07-13T08:08:56;21.00;76.10
10314;DHT22;5202;49.138;10.090;2023-07-13T08:11:24;21.10;75.60
10314;DHT22;5202;49.138;10.090;2023-07-13T08:13:55;21.40;72.80
10314;DHT22;5202;49.138;10.090;2023-07-13T08:16:24;21.40;73.00
10314;DHT22;5202;49.138;10.090;2023-07-13T08:18:52;21.60;68.40
10314;DHT22;5202;49.138;10.090;2023-07-13T08:21:21;21.60;68.30
10314;DHT22;5202;49.138;10.090;2023-07-13T08:23:50;21.50;66.20
10314;DHT22;5202;49.138;10.090;2023-07-13T08:26:19;21.50;64.40
10314;DHT22;5202;49.138;10.090;2023-07-13T08:28:48;21.70;65.60
10314;DHT22;5202;49.138;10.090;2023-07-13T08:31:17;21.80;64.10
10314;DHT22;5202;49.138;10.090;2023-07-13T08:33:45;21.90;63.20
10314;DHT22;5202;49.138;10.090;2023-07-13T08:36:13;21.70;62.50
10314;DHT22;5202;49.138;10.090;2023-07-13T08:38:41;21.70;63.40
10314;DHT22;5202;49.138;10.090;2023-07-13T08:41:12;21.90;64.10
10314;DHT22;5202;49.138;10.090;2023-07-13T08:43:46;21.90;64.50
10314;DHT22;5202;49.138;10.090;2023-07-13T08:46:19;21.90;63.90
10314;DHT22;5202;49.138;10.090;2023-07-13T08:48:57;22.00;63.80
10314;DHT22;5202;49.138;10.090;2023-07-13T08:51:36;22.10;64.80
10314;DHT22;5202;49.138;10.090;2023-07-13T08:54:16;22.20;63.70
10314;DHT22;5202;49.138;10.090;2023-07-13T08:56:47;22.40;62.90
10314;DHT22;5202;49.138;10.090;2023-07-13T08:59:24;22.50;64.00
10314;DHT22;5202;49.138;10.090;2023-07-13T09:02:08;22.60;63.10
10314;DHT22;5202;49.138;10.090;2023-07-13T09:04:49;22.70;63.00
10314;DHT22;5202;49.138;10.090;2023-07-13T09:07:28;22.50;62.40
10314;DHT22;5202;49.138;10.090;2023-07-13T09:10:09;22.70;63.00
10314;DHT22;5202;49.138;10.090;2023-07-13T09:12:55;22.80;63.80
10314;DHT22;5202;49.138;10.090;2023-07-13T09:15:31;22.80;63.00
10314;DHT22;5202;49.138;10.090;2023-07-13T09:18:05;22.80;62.30
10314;DHT22;5202;49.138;10.090;2023-07-13T09:20:41;22.80;61.40
10314;DHT22;5202;49.138;10.090;2023-07-13T09:23:15;22.70;61.90
10314;DHT22;5202;49.138;10.090;2023-07-13T09:25:47;22.80;61.20
10314;DHT22;5202;49.138;10.090;2023-07-13T09:28:20;22.90;62.90
10314;DHT22;5202;49.138;10.090;2023-07-13T09:30:54;22.90;62.10
10314;DHT22;5202;49.138;10.090;2023-07-13T09:33:27;22.80;60.50
10314;DHT22;5202;49.138;10.090;2023-07-13T09:35:58;22.70;59.90
10314;DHT22;5202;49.138;10.090;2023-07-13T09:38:29;22.60;59.80
10314;DHT22;5202;49.138;10.090;2023-07-13T09:41:08;22.40;60.50
10314;DHT22;5202;49.138;10.090;2023-07-13T09:44:06;22.50;60.70
10314;DHT22;5202;49.138;10.090;2023-07-13T09:46:40;22.60;59.10
10314;DHT22;5202;49.138;10.090;2023-07-13T09:49:13;22.60;59.50
10314;DHT22;5202;49.138;10.090;2023-07-13T09:51:42;22.60;58.90
10314;DHT22;5202;49.138;10.090;2023-07-13T09:54:19;22.80;60.50
10314;DHT22;5202;49.138;10.090;2023-07-13T09:56:54;23.00;59.00
10314;DHT22;5202;49.138;10.090;2023-07-13T09:59:27;23.00;59.10
10314;DHT22;5202;49.138;10.090;2023-07-13T10:01:59;23.00;58.70
10314;DHT22;5202;49.138;10.090;2023-07-13T10:04:32;23.10;59.50
10314;DHT22;5202;49.138;10.090;2023-07-13T10:07:05;23.10;60.20
10314;DHT22;5202;49.138;10.090;2023-07-13T10:09:54;23.20;58.20
10314;DHT22;5202;49.138;10.090;2023-07-13T10:12:24;23.20;57.00
10314;DHT22;5202;49.138;10.090;2023-07-13T10:14:57;23.20;57.90
10314;DHT22;5202;49.138;10.090;2023-07-13T10:17:49;23.10;58.60
10314;DHT22;5202;49.138;10.090;2023-07-13T10:20:18;23.30;58.50
10314;DHT22;5202;49.138;10.090;2023-07-13T10:22:52;23.40;59.90
10314;DHT22;5202;49.138;10.090;2023-07-13T10:25:25;23.50;57.90
10314;DHT22;5202;49.138;10.090;2023-07-13T10:27:58;23.60;58.40
10314;DHT22;5202;49.138;10.090;2023-07-13T10:30:34;23.80;58.00
10314;DHT22;5202;49.138;10.090;2023-07-13T10:33:10;23.90;58.40
10314;DHT22;5202;49.138;10.090;2023-07-13T10:35:42;24.00;57.80
10314;DHT22;5202;49.138;10.090;2023-07-13T10:38:14;24.00;56.70
10314;DHT22;5202;49.138;10.090;2023-07-13T10:40:53;23.70;56.70
10314;DHT22;5202;49.138;10.090;2023-07-13T10:43:27;23.60;57.50
10314;DHT22;5202;49.138;10.090;2023-07-13T10:45:58;23.60;58.20
10314;DHT22;5202;49.138;10.090;2023-07-13T10:48:29;23.50;57.50
10314;DHT22;5202;49.138;10.090;2023-07-13T10:50:59;23.50;58.10
10314;DHT22;5202;49.138;10.090;2023-07-13T10:53:29;23.70;57.80
10314;DHT22;5202;49.138;10.090;2023-07-13T10:56:01;23.80;56.30
10314;DHT22;5202;49.138;10.090;2023-07-13T10:58:34;23.60;55.80
10314;DHT22;5202;49.138;10.090;2023-07-13T11:01:11;23.60;57.70
10314;DHT22;5202;49.138;10.090;2023-07-13T11:03:50;23.70;58.40
10314;DHT22;5202;49.138;10.090;2023-07-13T11:06:34;23.60;58.80
10314;DHT22;5202;49.138;10.090;2023-07-13T11:09:19;23.60;58.60
10314;DHT22;5202;49.138;10.090;2023-07-13T11:12:00;23.60;58.50
10314;DHT22;5202;49.138;10.090;2023-07-13T11:14:34;23.90;59.70
10314;DHT22;5202;49.138;10.090;2023-07-13T11:17:35;24.00;55.10
10314;DHT22;5202;49.138;10.090;2023-07-13T11:20:21;23.70;55.30
10314;DHT22;5202;49.138;10.090;2023-07-13T11:22:53;23.90;54.70
10314;DHT22;5202;49.138;10.090;2023-07-13T11:25:37;23.90;54.80
10314;DHT22;5202;49.138;10.090;2023-07-13T11:28:18;23.60;55.90
10314;DHT22;5202;49.138;10.090;2023-07-13T11:31:12;23.50;57.30
10314;DHT22;5202;49.138;10.090;2023-07-13T11:33:57;23.40;57.60
10314;DHT22;5202;49.138;10.090;2023-07-13T11:36:32;23.40;57.90
10314;DHT22;5202;49.138;10.090;2023-07-13T11:39:19;23.30;57.20
10314;DHT22;5202;49.138;10.090;2023-07-13T11:41:51;23.40;58.30
10314;DHT22;5202;49.138;10.090;2023-07-13T11:44:23;23.40;58.60
10314;DHT22;5202;49.138;10.090;2023-07-13T11:46:54;23.30;57.50
10314;DHT22;5202;49.138;10.090;2023-07-13T11:49:26;23.30;57.40
10314;DHT22;5202;49.138;10.090;2023-07-13T11:52:01;23.30;57.60
10314;DHT22;5202;49.138;10.090;2023-07-13T11:54:31;23.20;57.50
10314;DHT22;5202;49.138;10.090;2023-07-13T11:57:02;23.50;57.80
10314;DHT22;5202;49.138;10.090;2023-07-13T11:59:40;23.70;57.60
10314;DHT22;5202;49.138;10.090;2023-07-13T12:02:14;23.60;57.60
10314;DHT22;5202;49.138;10.090;2023-07-13T12:04:47;23.50;58.30
10314;DHT22;5202;49.138;10.090;2023-07-13T12:07:19;23.50;57.90
10314;DHT22;5202;49.138;10.090;2023-07-13T12:09:48;23.50;57.30
10314;DHT22;5202;49.138;10.090;2023-07-13T12:12:21;23.30;56.80
10314;DHT22;5202;49.138;10.090;2023-07-13T12:14:51;23.30;57.00
10314;DHT22;5202;49.138;10.090;2023-07-13T12:17:23;23.50;57.80
10314;DHT22;5202;49.138;10.090;2023-07-13T12:19:53;23.80;57.40
10314;DHT22;5202;49.138;10.090;2023-07-13T12:22:23;24.00;56.40
10314;DHT22;5202;49.138;10.090;2023-07-13T12:24:51;24.20;57.30
10314;DHT22;5202;49.138;10.090;2023-07-13T12:27:23;24.30;55.70
10314;DHT22;5202;49.138;10.090;2023-07-13T12:29:59;24.40;55.00
10314;DHT22;5202;49.138;10.090;2023-07-13T12:32:33;24.40;54.80
10314;DHT22;5202;49.138;10.090;2023-07-13T12:35:13;24.40;54.20
10314;DHT22;5202;49.138;10.090;2023-07-13T12:37:46;24.30;55.00
10314;DHT22;5202;49.138;10.090;2023-07-13T12:40:15;24.50;54.70
10314;DHT22;5202;49.138;10.090;2023-07-13T12:42:47;25.00;56.40
10314;DHT22;5202;49.138;10.090;2023-07-13T12:45:19;25.60;54.20
10314;DHT22;5202;49.138;10.090;2023-07-13T12:47:55;25.80;52.20
10314;DHT22;5202;49.138;10.090;2023-07-13T12:50:30;25.30;51.90
10314;DHT22;5202;49.138;10.090;2023-07-13T12:53:05;24.90;52.90
10314;DHT22;5202;49.138;10.090;2023-07-13T12:55:41;24.50;53.90
10314;DHT22;5202;49.138;10.090;2023-07-13T12:58:18;24.70;53.90
10314;DHT22;5202;49.138;10.090;2023-07-13T13:00:54;24.90;54.00
10314;DHT22;5202;49.138;10.090;2023-07-13T13:03:29;24.90;53.50
10314;DHT22;5202;49.138;10.090;2023-07-13T13:06:01;24.80;54.60
10314;DHT22;5202;49.138;10.090;2023-07-13T13:08:34;24.80;53.50
10314;DHT22;5202;49.138;10.090;2023-07-13T13:11:03;24.70;53.60
10314;DHT22;5202;49.138;10.090;2023-07-13T13:13:31;24.80;53.80
10314;DHT22;5202;49.138;10.090;2023-07-13T13:16:02;25.10;53.40
10314;DHT22;5202;49.138;10.090;2023-07-13T13:18:33;25.20;52.50
10314;DHT22;5202;49.138;10.090;2023-07-13T13:21:03;25.30;52.70
10314;DHT22;5202;49.138;10.090;2023-07-13T13:23:32;25.60;52.70
10314;DHT22;5202;49.138;10.090;2023-07-13T13:26:02;25.50;51.80
10314;DHT22;5202;49.138;10.090;2023-07-13T13:28:31;25.40;53.10
10314;DHT22;5202;49.138;10.090;2023-07-13T13:31:00;25.70;53.60
10314;DHT22;5202;49.138;10.090;2023-07-13T13:33:29;25.70;51.90
10314;DHT22;5202;49.138;10.090;2023-07-13T13:35:58;25.50;52.40
10314;DHT22;5202;49.138;10.090;2023-07-13T13:38:27;25.10;52.00
10314;DHT22;5202;49.138;10.090;2023-07-13T13:40:57;24.70;53.20
10314;DHT22;5202;49.138;10.090;2023-07-13T13:43:26;24.70;53.90
10314;DHT22;5202;49.138;10.090;2023-07-13T13:45:57;24.70;52.30
10314;DHT22;5202;49.138;10.090;2023-07-13T13:48:31;24.90;52.90
10314;DHT22;5202;49.138;10.090;2023-07-13T13:51:09;25.10;52.80
10314;DHT22;5202;49.138;10.090;2023-07-13T13:53:41;25.00;53.00
10314;DHT22;5202;49.138;10.090;2023-07-13T13:56:12;24.90;52.40
10314;DHT22;5202;49.138;10.090;2023-07-13T13:58:41;24.80;52.20
10314;DHT22;5202;49.138;10.090;2023-07-13T14:01:13;25.00;52.20
10314;DHT22;5202;49.138;10.090;2023-07-13T14:03:55;24.80;51.10
10314;DHT22;5202;49.138;10.090;2023-07-13T14:06:27;24.90;51.70
10314;DHT22;5202;49.138;10.090;2023-07-13T14:08:55;25.00;52.10
10314;DHT22;5202;49.138;10.090;2023-07-13T14:11:25;24.80;52.00
10314;DHT22;5202;49.138;10.090;2023-07-13T14:13:55;24.70;51.20
10314;DHT22;5202;49.138;10.090;2023-07-13T14:16:27;24.90;51.20
10314;DHT22;5202;49.138;10.090;2023-07-13T14:18:59;25.10;51.90
10314;DHT22;5202;49.138;10.090;2023-07-13T14:21:29;24.90;52.70
10314;DHT22;5202;49.138;10.090;2023-07-13T14:23:57;25.10;51.10
10314;DHT22;5202;49.138;10.090;2023-07-13T14:26:27;25.00;50.90
10314;DHT22;5202;49.138;10.090;2023-07-13T14:28:57;25.00;50.60
10314;DHT22;5202;49.138;10.090;2023-07-13T14:31:27;24.80;51.40
10314;DHT22;5202;49.138;10.090;2023-07-13T14:33:57;24.80;51.60
10314;DHT22;5202;49.138;10.090;2023-07-13T14:36:28;24.90;52.90
10314;DHT22;5202;49.138;10.090;2023-07-13T14:39:14;25.20;52.90
10314;DHT22;5202;49.138;10.090;2023-07-13T14:41:45;25.30;51.00
10314;DHT22;5202;49.138;10.090;2023-07-13T14:44:15;25.60;52.00
10314;DHT22;5202;49.138;10.090;2023-07-13T14:46:46;25.60;51.20
10314;DHT22;5202;49.138;10.090;2023-07-13T14:49:23;25.50;51.00
10314;DHT22;5202;49.138;10.090;2023-07-13T14:51:54;25.60;51.40
10314;DHT22;5202;49.138;10.090;2023-07-13T14:54:24;25.50;51.50
10314;DHT22;5202;49.138;10.090;2023-07-13T14:56:54;25.40;51.30
10314;DHT22;5202;49.138;10.090;2023-07-13T14:59:23;25.30;51.50
10314;DHT22;5202;49.138;10.090;2023-07-13T15:01:51;25.00;50.60
10314;DHT22;5202;49.138;10.090;2023-07-13T15:04:20;24.60;51.40
10314;DHT22;5202;49.138;10.090;2023-07-13T15:06:54;24.70;52.20
10314;DHT22;5202;49.138;10.090;2023-07-13T15:09:24;24.80;52.30
10314;DHT22;5202;49.138;10.090;2023-07-13T15:11:56;24.60;53.10
10314;DHT22;5202;49.138;10.090;2023-07-13T15:14:25;24.50;52.50
10314;DHT22;5202;49.138;10.090;2023-07-13T15:16:57;24.50;52.50
10314;DHT22;5202;49.138;10.090;2023-07-13T15:19:26;24.40;52.90
10314;DHT22;5202;49.138;10.090;2023-07-13T15:21:55;24.60;53.80
10314;DHT22;5202;49.138;10.090;2023-07-13T15:24:25;24.70;52.90
10314;DHT22;5202;49.138;10.090;2023-07-13T15:26:55;24.80;53.10
10314;DHT22;5202;49.138;10.090;2023-07-13T15:29:23;24.70;52.70
10314;DHT22;5202;49.138;10.090;2023-07-13T15:31:51;24.40;53.50
10314;DHT22;5202;49.138;10.090;2023-07-13T15:34:24;24.30;53.80
10314;DHT22;5202;49.138;10.090;2023-07-13T15:36:54;24.40;54.60
10314;DHT22;5202;49.138;10.090;2023-07-13T15:39:22;24.20;54.70
10314;DHT22;5202;49.138;10.090;2023-07-13T15:41:51;24.20;54.40
10314;DHT22;5202;49.138;10.090;2023-07-13T15:44:25;24.20;54.90
10314;DHT22;5202;49.138;10.090;2023-07-13T15:46:55;24.30;54.50
10314;DHT22;5202;49.138;10.090;2023-07-13T15:49:23;24.30;54.40
10314;DHT22;5202;49.138;10.090;2023-07-13T15:51:52;24.20;54.40
10314;DHT22;5202;49.138;10.090;2023-07-13T15:54:20;24.00;54.50
10314;DHT22;5202;49.138;10.090;2023-07-13T15:56:53;23.90;54.70